sensor_id;sensor_type;location;lat;lon;timestamp;P1;durP1;ratioP1;P2;durP2;ratioP2
64061;SDS011;50308;47.438;-1.528;2023-07-29T00:01:27;1.73;;;0.50;;
64061;SDS011;50308;47.438;-1.528;2023-07-29T00:03:52;1.63;;;0.52;;
64061;SDS011;50308;47.438;-1.528;2023-07-29T00:06:18;0.63;;;0.30;;
64061;SDS011;50308;47.438;-1.528;2023-07-29T00:08:43;1.30;;;0.50;;
64061;SDS011;50308;47.438;-1.528;2023-07-29T00:11:09;1.65;;;0.35;;
64061;SDS011;50308;47.438;-1.528;2023-07-29T00:13:35;1.75;;;0.60;;
64061;SDS011;50308;47.438;-1.528;2023-07-29T00:16:00;1.42;;;0.40;;
64061;SDS011;50308;47.438;-1.528;2023-07-29T00:18:26;2.00;;;0.40;;
64061;SDS011;50308;47.438;-1.528;2023-07-29T00:20:52;1.55;;;0.45;;
64061;SDS011;50308;47.438;-1.528;2023-07-29T00:23:18;3.22;;;0.65;;
64061;SDS011;50308;47.438;-1.528;2023-07-29T00:25:44;3.17;;;0.40;;
64061;SDS011;50308;47.438;-1.528;2023-07-29T00:28:11;0.82;;;0.50;;
64061;SDS011;50308;47.438;-1.528;2023-07-29T00:30:37;2.60;;;0.50;;
64061;SDS011;50308;47.438;-1.528;2023-07-29T00:33:02;2.30;;;0.60;;
64061;SDS011;50308;47.438;-1.528;2023-07-29T00:35:28;2.92;;;0.50;;
64061;SDS011;50308;47.438;-1.528;2023-07-29T00:37:54;2.20;;;0.43;;
64061;SDS011;50308;47.438;-1.528;2023-07-29T00:40:20;1.05;;;0.50;;
64061;SDS011;50308;47.438;-1.528;2023-07-29T00:42:47;2.90;;;0.70;;
64061;SDS011;50308;47.438;-1.528;2023-07-29T00:45:14;1.27;;;0.52;;
64061;SDS011;50308;47.438;-1.528;2023-07-29T00:47:39;1.33;;;0.40;;
64061;SDS011;50308;47.438;-1.528;2023-07-29T00:50:07;1.42;;;0.50;;
64061;SDS011;50308;47.438;-1.528;2023-07-29T00:52:34;2.70;;;0.60;;
64061;SDS011;50308;47.438;-1.528;2023-07-29T00:55:00;2.53;;;0.75;;
64061;SDS011;50308;47.438;-1.528;2023-07-29T00:57:26;1.25;;;0.60;;
64061;SDS011;50308;47.438;-1.528;2023-07-29T00:59:53;1.25;;;0.30;;
64061;SDS011;50308;47.438;-1.528;2023-07-29T01:02:19;2.40;;;0.60;;
64061;SDS011;50308;47.438;-1.528;2023-07-29T01:04:45;2.10;;;0.57;;
64061;SDS011;50308;47.438;-1.528;2023-07-29T01:10:03;0.80;;;0.50;;
64061;SDS011;50308;47.438;-1.528;2023-07-29T01:12:45;1.92;;;0.43;;
64061;SDS011;50308;47.438;-1.528;2023-07-29T01:15:18;2.15;;;0.50;;
64061;SDS011;50308;47.438;-1.528;2023-07-29T01:17:51;1.17;;;0.30;;
64061;SDS011;50308;47.438;-1.528;2023-07-29T01:20:20;2.47;;;0.55;;
64061;SDS011;50308;47.438;-1.528;2023-07-29T01:22:48;2.17;;;0.70;;
64061;SDS011;50308;47.438;-1.528;2023-07-29T01:25:14;1.70;;;0.50;;
64061;SDS011;50308;47.438;-1.528;2023-07-29T01:27:41;0.63;;;0.30;;
64061;SDS011;50308;47.438;-1.528;2023-07-29T01:30:08;3.30;;;0.60;;
64061;SDS011;50308;47.438;-1.528;2023-07-29T01:35:19;1.52;;;0.73;;
64061;SDS011;50308;47.438;-1.528;2023-07-29T01:38:01;1.80;;;0.57;;
64061;SDS011;50308;47.438;-1.528;2023-07-29T01:40:38;1.05;;;0.40;;
64061;SDS011;50308;47.438;-1.528;2023-07-29T01:43:05;2.10;;;0.50;;
64061;SDS011;50308;47.438;-1.528;2023-07-29T01:45:33;2.80;;;0.70;;
64061;SDS011;50308;47.438;-1.528;2023-07-29T01:48:03;2.50;;;0.60;;
64061;SDS011;50308;47.438;-1.528;2023-07-29T01:50:29;2.33;;;0.70;;
64061;SDS011;50308;47.438;-1.528;2023-07-29T01:52:57;1.90;;;0.57;;
64061;SDS011;50308;47.438;-1.528;2023-07-29T01:55:22;7.32;;;1.23;;
64061;SDS011;50308;47.438;-1.528;2023-07-29T01:57:48;1.42;;;0.63;;
64061;SDS011;50308;47.438;-1.528;2023-07-29T02:00:14;2.10;;;0.50;;
64061;SDS011;50308;47.438;-1.528;2023-07-29T02:02:40;1.17;;;0.50;;
64061;SDS011;50308;47.438;-1.528;2023-07-29T02:05:06;2.70;;;0.73;;
64061;SDS011;50308;47.438;-1.528;2023-07-29T02:07:32;2.85;;;0.77;;
64061;SDS011;50308;47.438;-1.528;2023-07-29T02:09:57;1.58;;;0.70;;
64061;SDS011;50308;47.438;-1.528;2023-07-29T02:12:23;2.75;;;0.45;;
64061;SDS011;50308;47.438;-1.528;2023-07-29T02:14:49;1.35;;;0.60;;
64061;SDS011;50308;47.438;-1.528;2023-07-29T02:17:15;1.42;;;0.60;;
64061;SDS011;50308;47.438;-1.528;2023-07-29T02:19:40;1.75;;;0.60;;
64061;SDS011;50308;47.438;-1.528;2023-07-29T02:22:06;3.00;;;0.75;;
64061;SDS011;50308;47.438;-1.528;2023-07-29T02:24:32;2.28;;;0.60;;
64061;SDS011;50308;47.438;-1.528;2023-07-29T02:26:57;3.63;;;1.23;;
64061;SDS011;50308;47.438;-1.528;2023-07-29T02:29:23;1.98;;;0.82;;
64061;SDS011;50308;47.438;-1.528;2023-07-29T02:31:50;3.38;;;0.80;;
64061;SDS011;50308;47.438;-1.528;2023-07-29T02:34:15;3.72;;;0.80;;
64061;SDS011;50308;47.438;-1.528;2023-07-29T02:36:41;3.58;;;0.70;;
64061;SDS011;50308;47.438;-1.528;2023-07-29T02:39:07;1.42;;;0.70;;
64061;SDS011;50308;47.438;-1.528;2023-07-29T02:41:33;2.75;;;1.00;;
64061;SDS011;50308;47.438;-1.528;2023-07-29T02:43:58;2.83;;;0.60;;
64061;SDS011;50308;47.438;-1.528;2023-07-29T02:46:24;2.17;;;0.80;;
64061;SDS011;50308;47.438;-1.528;2023-07-29T02:48:50;4.47;;;0.70;;
64061;SDS011;50308;47.438;-1.528;2023-07-29T02:51:16;3.40;;;1.00;;
64061;SDS011;50308;47.438;-1.528;2023-07-29T02:53:41;3.28;;;1.00;;
64061;SDS011;50308;47.438;-1.528;2023-07-29T02:56:07;4.78;;;1.00;;
64061;SDS011;50308;47.438;-1.528;2023-07-29T02:58:35;3.08;;;0.88;;
64061;SDS011;50308;47.438;-1.528;2023-07-29T03:01:02;4.45;;;1.00;;
64061;SDS011;50308;47.438;-1.528;2023-07-29T03:03:31;1.42;;;0.70;;
64061;SDS011;50308;47.438;-1.528;2023-07-29T03:06:04;3.35;;;0.90;;
64061;SDS011;50308;47.438;-1.528;2023-07-29T03:08:32;2.65;;;0.93;;
64061;SDS011;50308;47.438;-1.528;2023-07-29T03:10:58;3.13;;;1.00;;
64061;SDS011;50308;47.438;-1.528;2023-07-29T03:13:24;4.78;;;0.98;;
64061;SDS011;50308;47.438;-1.528;2023-07-29T03:15:51;3.47;;;1.13;;
64061;SDS011;50308;47.438;-1.528;2023-07-29T03:18:16;4.55;;;0.98;;
64061;SDS011;50308;47.438;-1.528;2023-07-29T03:20:42;3.88;;;1.48;;
64061;SDS011;50308;47.438;-1.528;2023-07-29T03:23:08;2.63;;;1.00;;
64061;SDS011;50308;47.438;-1.528;2023-07-29T03:25:33;4.57;;;1.13;;
64061;SDS011;50308;47.438;-1.528;2023-07-29T03:27:59;2.72;;;1.10;;
64061;SDS011;50308;47.438;-1.528;2023-07-29T03:30:25;2.63;;;1.00;;
64061;SDS011;50308;47.438;-1.528;2023-07-29T03:32:51;5.68;;;1.02;;
64061;SDS011;50308;47.438;-1.528;2023-07-29T03:35:16;2.72;;;0.90;;
64061;SDS011;50308;47.438;-1.528;2023-07-29T03:37:42;4.55;;;1.10;;
64061;SDS011;50308;47.438;-1.528;2023-07-29T03:40:09;3.03;;;1.10;;
64061;SDS011;50308;47.438;-1.528;2023-07-29T03:42:35;3.15;;;1.00;;
64061;SDS011;50308;47.438;-1.528;2023-07-29T03:45:01;4.28;;;1.05;;
64061;SDS011;50308;47.438;-1.528;2023-07-29T03:47:27;3.50;;;1.30;;
64061;SDS011;50308;47.438;-1.528;2023-07-29T03:49:53;2.00;;;0.98;;
64061;SDS011;50308;47.438;-1.528;2023-07-29T03:52:19;5.18;;;1.35;;
64061;SDS011;50308;47.438;-1.528;2023-07-29T03:54:45;4.68;;;1.13;;
64061;SDS011;50308;47.438;-1.528;2023-07-29T03:57:10;5.63;;;1.48;;
64061;SDS011;50308;47.438;-1.528;2023-07-29T03:59:36;2.55;;;0.98;;
64061;SDS011;50308;47.438;-1.528;2023-07-29T04:02:02;2.35;;;0.80;;
64061;SDS011;50308;47.438;-1.528;2023-07-29T04:04:27;1.92;;;0.98;;
64061;SDS011;50308;47.438;-1.528;2023-07-29T04:06:53;2.33;;;0.90;;
64061;SDS011;50308;47.438;-1.528;2023-07-29T04:09:18;1.70;;;0.90;;
64061;SDS011;50308;47.438;-1.528;2023-07-29T04:11:44;3.78;;;1.00;;
64061;SDS011;50308;47.438;-1.528;2023-07-29T04:14:10;3.17;;;1.13;;
64061;SDS011;50308;47.438;-1.528;2023-07-29T04:16:36;3.42;;;1.20;;
64061;SDS011;50308;47.438;-1.528;2023-07-29T04:19:01;3.15;;;1.05;;
64061;SDS011;50308;47.438;-1.528;2023-07-29T04:21:27;3.97;;;1.10;;
64061;SDS011;50308;47.438;-1.528;2023-07-29T04:23:53;2.58;;;0.90;;
64061;SDS011;50308;47.438;-1.528;2023-07-29T04:26:18;3.13;;;0.93;;
64061;SDS011;50308;47.438;-1.528;2023-07-29T04:28:44;1.80;;;1.27;;
64061;SDS011;50308;47.438;-1.528;2023-07-29T04:31:09;6.20;;;1.13;;
64061;SDS011;50308;47.438;-1.528;2023-07-29T04:33:35;4.20;;;0.90;;
64061;SDS011;50308;47.438;-1.528;2023-07-29T04:36:01;2.58;;;0.80;;
64061;SDS011;50308;47.438;-1.528;2023-07-29T04:38:32;1.75;;;0.88;;
64061;SDS011;50308;47.438;-1.528;2023-07-29T04:40:58;2.30;;;0.95;;
64061;SDS011;50308;47.438;-1.528;2023-07-29T04:43:28;1.50;;;0.73;;
64061;SDS011;50308;47.438;-1.528;2023-07-29T04:45:55;3.55;;;1.35;;
64061;SDS011;50308;47.438;-1.528;2023-07-29T04:48:21;2.03;;;0.80;;
64061;SDS011;50308;47.438;-1.528;2023-07-29T04:50:47;2.95;;;0.80;;
64061;SDS011;50308;47.438;-1.528;2023-07-29T04:53:12;1.05;;;0.73;;
64061;SDS011;50308;47.438;-1.528;2023-07-29T04:55:38;1.70;;;1.05;;
64061;SDS011;50308;47.438;-1.528;2023-07-29T04:58:06;1.70;;;0.95;;
64061;SDS011;50308;47.438;-1.528;2023-07-29T05:00:32;2.72;;;0.80;;
64061;SDS011;50308;47.438;-1.528;2023-07-29T05:02:58;1.92;;;1.15;;
64061;SDS011;50308;47.438;-1.528;2023-07-29T05:05:24;2.53;;;1.02;;
64061;SDS011;50308;47.438;-1.528;2023-07-29T05:07:50;3.33;;;1.10;;
64061;SDS011;50308;47.438;-1.528;2023-07-29T05:10:15;1.80;;;1.20;;
64061;SDS011;50308;47.438;-1.528;2023-07-29T05:12:41;2.55;;;0.85;;
64061;SDS011;50308;47.438;-1.528;2023-07-29T05:15:07;2.33;;;0.90;;
64061;SDS011;50308;47.438;-1.528;2023-07-29T05:17:33;2.58;;;1.20;;
64061;SDS011;50308;47.438;-1.528;2023-07-29T05:19:59;2.22;;;1.30;;
64061;SDS011;50308;47.438;-1.528;2023-07-29T05:22:24;2.03;;;1.10;;
64061;SDS011;50308;47.438;-1.528;2023-07-29T05:24:50;4.07;;;1.23;;
64061;SDS011;50308;47.438;-1.528;2023-07-29T05:27:16;3.83;;;1.20;;
64061;SDS011;50308;47.438;-1.528;2023-07-29T05:29:41;2.45;;;1.23;;
64061;SDS011;50308;47.438;-1.528;2023-07-29T05:32:07;2.15;;;1.30;;
64061;SDS011;50308;47.438;-1.528;2023-07-29T05:34:33;3.47;;;0.93;;
64061;SDS011;50308;47.438;-1.528;2023-07-29T05:36:58;4.43;;;1.50;;
64061;SDS011;50308;47.438;-1.528;2023-07-29T05:39:24;2.58;;;1.15;;
64061;SDS011;50308;47.438;-1.528;2023-07-29T05:41:50;3.88;;;1.20;;
64061;SDS011;50308;47.438;-1.528;2023-07-29T05:44:15;3.83;;;1.35;;
64061;SDS011;50308;47.438;-1.528;2023-07-29T05:46:41;3.72;;;1.40;;
64061;SDS011;50308;47.438;-1.528;2023-07-29T05:49:07;5.95;;;1.35;;
64061;SDS011;50308;47.438;-1.528;2023-07-29T05:51:32;4.20;;;1.40;;
64061;SDS011;50308;47.438;-1.528;2023-07-29T05:53:58;2.33;;;1.20;;
64061;SDS011;50308;47.438;-1.528;2023-07-29T05:56:24;5.07;;;1.30;;
64061;SDS011;50308;47.438;-1.528;2023-07-29T05:58:49;4.53;;;1.42;;
64061;SDS011;50308;47.438;-1.528;2023-07-29T06:01:15;3.65;;;1.50;;
64061;SDS011;50308;47.438;-1.528;2023-07-29T06:03:41;4.15;;;1.40;;
64061;SDS011;50308;47.438;-1.528;2023-07-29T06:06:06;3.30;;;1.30;;
64061;SDS011;50308;47.438;-1.528;2023-07-29T06:08:32;5.97;;;1.50;;
64061;SDS011;50308;47.438;-1.528;2023-07-29T06:10:59;2.10;;;1.40;;
64061;SDS011;50308;47.438;-1.528;2023-07-29T06:13:25;4.60;;;1.33;;
64061;SDS011;50308;47.438;-1.528;2023-07-29T06:15:51;3.47;;;1.27;;
64061;SDS011;50308;47.438;-1.528;2023-07-29T06:18:16;2.50;;;1.30;;
64061;SDS011;50308;47.438;-1.528;2023-07-29T06:20:42;3.40;;;1.40;;
64061;SDS011;50308;47.438;-1.528;2023-07-29T06:23:08;4.57;;;1.60;;
64061;SDS011;50308;47.438;-1.528;2023-07-29T06:25:34;6.95;;;1.90;;
64061;SDS011;50308;47.438;-1.528;2023-07-29T06:27:59;2.88;;;1.40;;
64061;SDS011;50308;47.438;-1.528;2023-07-29T06:30:25;5.45;;;1.33;;
64061;SDS011;50308;47.438;-1.528;2023-07-29T06:32:51;4.30;;;1.80;;
64061;SDS011;50308;47.438;-1.528;2023-07-29T06:35:16;6.45;;;1.42;;
64061;SDS011;50308;47.438;-1.528;2023-07-29T06:37:42;5.45;;;1.92;;
64061;SDS011;50308;47.438;-1.528;2023-07-29T06:40:08;6.53;;;1.83;;
64061;SDS011;50308;47.438;-1.528;2023-07-29T06:42:34;3.40;;;1.50;;
64061;SDS011;50308;47.438;-1.528;2023-07-29T06:44:59;2.47;;;0.95;;
64061;SDS011;50308;47.438;-1.528;2023-07-29T06:47:25;3.70;;;1.40;;
64061;SDS011;50308;47.438;-1.528;2023-07-29T06:49:50;3.42;;;1.38;;
64061;SDS011;50308;47.438;-1.528;2023-07-29T06:52:16;3.65;;;1.75;;
64061;SDS011;50308;47.438;-1.528;2023-07-29T06:54:42;2.20;;;1.17;;
64061;SDS011;50308;47.438;-1.528;2023-07-29T06:57:07;1.80;;;1.20;;
64061;SDS011;50308;47.438;-1.528;2023-07-29T06:59:33;4.80;;;1.95;;
64061;SDS011;50308;47.438;-1.528;2023-07-29T07:01:59;6.93;;;1.55;;
64061;SDS011;50308;47.438;-1.528;2023-07-29T07:04:25;3.72;;;1.65;;
64061;SDS011;50308;47.438;-1.528;2023-07-29T07:06:50;3.92;;;2.10;;
64061;SDS011;50308;47.438;-1.528;2023-07-29T07:09:16;5.20;;;2.60;;
64061;SDS011;50308;47.438;-1.528;2023-07-29T07:11:42;8.52;;;2.72;;
64061;SDS011;50308;47.438;-1.528;2023-07-29T07:14:07;5.95;;;2.60;;
64061;SDS011;50308;47.438;-1.528;2023-07-29T07:16:33;5.45;;;3.05;;
64061;SDS011;50308;47.438;-1.528;2023-07-29T07:19:01;6.05;;;2.72;;
64061;SDS011;50308;47.438;-1.528;2023-07-29T07:21:27;7.07;;;3.00;;
64061;SDS011;50308;47.438;-1.528;2023-07-29T07:23:53;6.78;;;2.90;;
64061;SDS011;50308;47.438;-1.528;2023-07-29T07:26:18;6.78;;;3.13;;
64061;SDS011;50308;47.438;-1.528;2023-07-29T07:28:44;6.05;;;2.90;;
64061;SDS011;50308;47.438;-1.528;2023-07-29T07:31:10;6.63;;;3.22;;
64061;SDS011;50308;47.438;-1.528;2023-07-29T07:33:35;8.60;;;3.85;;
64061;SDS011;50308;47.438;-1.528;2023-07-29T07:36:01;6.28;;;4.10;;
64061;SDS011;50308;47.438;-1.528;2023-07-29T07:38:27;6.05;;;4.25;;
64061;SDS011;50308;47.438;-1.528;2023-07-29T07:40:53;7.30;;;3.88;;
64061;SDS011;50308;47.438;-1.528;2023-07-29T07:43:22;7.10;;;4.25;;
64061;SDS011;50308;47.438;-1.528;2023-07-29T07:45:49;8.13;;;4.50;;
64061;SDS011;50308;47.438;-1.528;2023-07-29T07:48:14;6.45;;;4.00;;
64061;SDS011;50308;47.438;-1.528;2023-07-29T07:50:42;10.57;;;4.75;;
64061;SDS011;50308;47.438;-1.528;2023-07-29T07:53:10;5.95;;;3.58;;
64061;SDS011;50308;47.438;-1.528;2023-07-29T07:55:36;5.82;;;3.55;;
64061;SDS011;50308;47.438;-1.528;2023-07-29T07:58:01;6.13;;;3.65;;
64061;SDS011;50308;47.438;-1.528;2023-07-29T08:00:27;6.50;;;3.50;;
64061;SDS011;50308;47.438;-1.528;2023-07-29T08:02:52;6.03;;;3.78;;
64061;SDS011;50308;47.438;-1.528;2023-07-29T08:05:18;9.10;;;3.95;;
64061;SDS011;50308;47.438;-1.528;2023-07-29T08:07:44;8.02;;;3.95;;
64061;SDS011;50308;47.438;-1.528;2023-07-29T08:10:09;6.97;;;3.92;;
64061;SDS011;50308;47.438;-1.528;2023-07-29T08:12:35;5.50;;;4.03;;
64061;SDS011;50308;47.438;-1.528;2023-07-29T08:15:01;6.70;;;3.13;;
64061;SDS011;50308;47.438;-1.528;2023-07-29T08:17:27;5.97;;;3.97;;
64061;SDS011;50308;47.438;-1.528;2023-07-29T08:19:53;9.90;;;4.22;;
64061;SDS011;50308;47.438;-1.528;2023-07-29T08:22:19;5.20;;;3.47;;
64061;SDS011;50308;47.438;-1.528;2023-07-29T08:24:45;6.97;;;3.60;;
64061;SDS011;50308;47.438;-1.528;2023-07-29T08:27:11;4.10;;;2.85;;
64061;SDS011;50308;47.438;-1.528;2023-07-29T08:29:36;5.22;;;3.45;;
64061;SDS011;50308;47.438;-1.528;2023-07-29T08:32:02;5.05;;;2.38;;
64061;SDS011;50308;47.438;-1.528;2023-07-29T08:34:28;7.00;;;2.10;;
64061;SDS011;50308;47.438;-1.528;2023-07-29T08:36:53;6.40;;;2.42;;
64061;SDS011;50308;47.438;-1.528;2023-07-29T08:39:19;4.13;;;2.33;;
64061;SDS011;50308;47.438;-1.528;2023-07-29T08:41:57;4.32;;;2.10;;
64061;SDS011;50308;47.438;-1.528;2023-07-29T08:44:30;3.67;;;2.05;;
64061;SDS011;50308;47.438;-1.528;2023-07-29T08:47:05;4.05;;;2.08;;
64061;SDS011;50308;47.438;-1.528;2023-07-29T08:49:31;3.40;;;1.88;;
64061;SDS011;50308;47.438;-1.528;2023-07-29T08:51:58;4.75;;;1.92;;
64061;SDS011;50308;47.438;-1.528;2023-07-29T08:54:24;4.18;;;1.80;;
64061;SDS011;50308;47.438;-1.528;2023-07-29T08:56:50;4.80;;;2.40;;
64061;SDS011;50308;47.438;-1.528;2023-07-29T08:59:16;2.90;;;1.67;;
64061;SDS011;50308;47.438;-1.528;2023-07-29T09:01:43;4.80;;;1.95;;
64061;SDS011;50308;47.438;-1.528;2023-07-29T09:04:09;5.32;;;1.67;;
64061;SDS011;50308;47.438;-1.528;2023-07-29T09:06:34;3.65;;;1.58;;
64061;SDS011;50308;47.438;-1.528;2023-07-29T09:09:01;4.47;;;1.73;;
64061;SDS011;50308;47.438;-1.528;2023-07-29T09:11:27;3.53;;;1.88;;
64061;SDS011;50308;47.438;-1.528;2023-07-29T09:13:53;3.15;;;1.27;;
64061;SDS011;50308;47.438;-1.528;2023-07-29T09:16:22;5.25;;;1.75;;
64061;SDS011;50308;47.438;-1.528;2023-07-29T09:18:49;4.47;;;1.73;;
64061;SDS011;50308;47.438;-1.528;2023-07-29T09:21:16;2.85;;;1.35;;
64061;SDS011;50308;47.438;-1.528;2023-07-29T09:23:43;4.20;;;1.70;;
64061;SDS011;50308;47.438;-1.528;2023-07-29T09:26:09;3.67;;;1.73;;
64061;SDS011;50308;47.438;-1.528;2023-07-29T09:28:37;3.63;;;1.20;;
64061;SDS011;50308;47.438;-1.528;2023-07-29T09:31:04;2.80;;;1.52;;
64061;SDS011;50308;47.438;-1.528;2023-07-29T09:33:33;1.77;;;1.23;;
64061;SDS011;50308;47.438;-1.528;2023-07-29T09:36:01;3.25;;;1.27;;
64061;SDS011;50308;47.438;-1.528;2023-07-29T09:38:33;3.17;;;1.48;;
64061;SDS011;50308;47.438;-1.528;2023-07-29T09:41:00;6.20;;;2.15;;
64061;SDS011;50308;47.438;-1.528;2023-07-29T09:43:31;4.57;;;2.33;;
64061;SDS011;50308;47.438;-1.528;2023-07-29T09:46:01;3.80;;;2.05;;
64061;SDS011;50308;47.438;-1.528;2023-07-29T09:48:28;3.33;;;2.10;;
64061;SDS011;50308;47.438;-1.528;2023-07-29T09:50:57;2.70;;;2.15;;
64061;SDS011;50308;47.438;-1.528;2023-07-29T09:53:23;3.72;;;2.20;;
64061;SDS011;50308;47.438;-1.528;2023-07-29T09:55:50;3.60;;;2.00;;
64061;SDS011;50308;47.438;-1.528;2023-07-29T09:58:26;3.35;;;2.67;;
64061;SDS011;50308;47.438;-1.528;2023-07-29T10:00:52;6.63;;;3.10;;
64061;SDS011;50308;47.438;-1.528;2023-07-29T10:03:21;5.47;;;3.13;;
64061;SDS011;50308;47.438;-1.528;2023-07-29T10:05:47;2.55;;;2.28;;
64061;SDS011;50308;47.438;-1.528;2023-07-29T10:08:14;3.28;;;2.40;;
64061;SDS011;50308;47.438;-1.528;2023-07-29T10:10:44;4.65;;;2.90;;
64061;SDS011;50308;47.438;-1.528;2023-07-29T10:13:10;4.78;;;3.08;;
64061;SDS011;50308;47.438;-1.528;2023-07-29T10:15:37;4.68;;;2.67;;
64061;SDS011;50308;47.438;-1.528;2023-07-29T10:18:02;4.88;;;2.97;;
64061;SDS011;50308;47.438;-1.528;2023-07-29T10:20:30;3.80;;;2.70;;
64061;SDS011;50308;47.438;-1.528;2023-07-29T10:22:59;6.45;;;3.22;;
64061;SDS011;50308;47.438;-1.528;2023-07-29T10:25:25;3.55;;;2.90;;
64061;SDS011;50308;47.438;-1.528;2023-07-29T10:28:08;3.13;;;2.83;;
64061;SDS011;50308;47.438;-1.528;2023-07-29T10:30:38;3.97;;;2.72;;
64061;SDS011;50308;47.438;-1.528;2023-07-29T10:33:04;4.80;;;2.40;;
64061;SDS011;50308;47.438;-1.528;2023-07-29T10:35:34;6.70;;;2.95;;
64061;SDS011;50308;47.438;-1.528;2023-07-29T10:38:01;3.38;;;2.40;;
64061;SDS011;50308;47.438;-1.528;2023-07-29T10:40:43;2.83;;;2.10;;
64061;SDS011;50308;47.438;-1.528;2023-07-29T10:43:11;4.45;;;2.42;;
64061;SDS011;50308;47.438;-1.528;2023-07-29T10:45:38;3.45;;;2.20;;
64061;SDS011;50308;47.438;-1.528;2023-07-29T10:48:39;2.75;;;1.70;;
64061;SDS011;50308;47.438;-1.528;2023-07-29T10:54:02;2.90;;;1.80;;
64061;SDS011;50308;47.438;-1.528;2023-07-29T10:56:41;2.78;;;1.85;;
64061;SDS011;50308;47.438;-1.528;2023-07-29T11:01:38;2.20;;;1.40;;
64061;SDS011;50308;47.438;-1.528;2023-07-29T11:15:26;2.33;;;1.40;;
64061;SDS011;50308;47.438;-1.528;2023-07-29T11:17:59;2.35;;;1.42;;
64061;SDS011;50308;47.438;-1.528;2023-07-29T11:20:35;2.60;;;1.48;;
64061;SDS011;50308;47.438;-1.528;2023-07-29T11:23:01;2.22;;;1.40;;
64061;SDS011;50308;47.438;-1.528;2023-07-29T11:25:29;1.60;;;1.20;;
64061;SDS011;50308;47.438;-1.528;2023-07-29T11:27:56;2.30;;;1.05;;
64061;SDS011;50308;47.438;-1.528;2023-07-29T11:30:23;1.75;;;1.23;;
64061;SDS011;50308;47.438;-1.528;2023-07-29T11:32:52;1.88;;;1.30;;
64061;SDS011;50308;47.438;-1.528;2023-07-29T11:35:19;2.40;;;1.13;;
64061;SDS011;50308;47.438;-1.528;2023-07-29T11:37:45;1.75;;;1.13;;
64061;SDS011;50308;47.438;-1.528;2023-07-29T11:40:15;2.05;;;1.20;;
64061;SDS011;50308;47.438;-1.528;2023-07-29T11:42:48;2.13;;;1.20;;
64061;SDS011;50308;47.438;-1.528;2023-07-29T11:45:18;2.25;;;0.98;;
64061;SDS011;50308;47.438;-1.528;2023-07-29T11:47:45;3.60;;;1.20;;
64061;SDS011;50308;47.438;-1.528;2023-07-29T11:50:11;2.35;;;0.93;;
64061;SDS011;50308;47.438;-1.528;2023-07-29T11:52:44;1.88;;;1.00;;
64061;SDS011;50308;47.438;-1.528;2023-07-29T11:55:11;2.55;;;1.30;;
64061;SDS011;50308;47.438;-1.528;2023-07-29T11:57:38;2.33;;;1.13;;
64061;SDS011;50308;47.438;-1.528;2023-07-29T12:00:06;2.40;;;1.00;;
64061;SDS011;50308;47.438;-1.528;2023-07-29T12:02:35;1.75;;;1.10;;
64061;SDS011;50308;47.438;-1.528;2023-07-29T12:05:03;2.20;;;1.30;;
64061;SDS011;50308;47.438;-1.528;2023-07-29T12:07:30;2.10;;;0.95;;
64061;SDS011;50308;47.438;-1.528;2023-07-29T12:09:58;1.45;;;0.75;;
64061;SDS011;50308;47.438;-1.528;2023-07-29T12:12:24;2.90;;;1.00;;
64061;SDS011;50308;47.438;-1.528;2023-07-29T12:14:50;3.25;;;0.80;;
64061;SDS011;50308;47.438;-1.528;2023-07-29T12:17:15;1.08;;;0.70;;
64061;SDS011;50308;47.438;-1.528;2023-07-29T12:19:41;2.75;;;0.70;;
64061;SDS011;50308;47.438;-1.528;2023-07-29T12:22:08;1.92;;;1.05;;
64061;SDS011;50308;47.438;-1.528;2023-07-29T12:24:36;2.13;;;0.90;;
64061;SDS011;50308;47.438;-1.528;2023-07-29T12:27:03;1.65;;;0.73;;
64061;SDS011;50308;47.438;-1.528;2023-07-29T12:29:29;1.45;;;0.68;;
64061;SDS011;50308;47.438;-1.528;2023-07-29T12:31:59;2.13;;;0.90;;
64061;SDS011;50308;47.438;-1.528;2023-07-29T12:34:27;1.60;;;0.75;;
64061;SDS011;50308;47.438;-1.528;2023-07-29T12:36:54;1.45;;;0.82;;
64061;SDS011;50308;47.438;-1.528;2023-07-29T12:39:21;1.35;;;0.80;;
64061;SDS011;50308;47.438;-1.528;2023-07-29T12:41:49;3.10;;;0.70;;
64061;SDS011;50308;47.438;-1.528;2023-07-29T12:44:16;1.10;;;0.70;;
64061;SDS011;50308;47.438;-1.528;2023-07-29T12:46:42;2.28;;;1.00;;
64061;SDS011;50308;47.438;-1.528;2023-07-29T12:49:08;1.40;;;0.60;;
64061;SDS011;50308;47.438;-1.528;2023-07-29T12:51:33;1.42;;;0.60;;
64061;SDS011;50308;47.438;-1.528;2023-07-29T12:53:59;0.80;;;0.60;;
64061;SDS011;50308;47.438;-1.528;2023-07-29T12:56:25;1.25;;;0.57;;
64061;SDS011;50308;47.438;-1.528;2023-07-29T12:58:51;1.00;;;0.60;;
64061;SDS011;50308;47.438;-1.528;2023-07-29T13:01:17;1.30;;;0.70;;
64061;SDS011;50308;47.438;-1.528;2023-07-29T13:03:46;1.10;;;0.70;;
64061;SDS011;50308;47.438;-1.528;2023-07-29T13:06:13;1.10;;;0.70;;
64061;SDS011;50308;47.438;-1.528;2023-07-29T13:08:40;1.58;;;0.73;;
64061;SDS011;50308;47.438;-1.528;2023-07-29T13:11:06;2.05;;;0.63;;
64061;SDS011;50308;47.438;-1.528;2023-07-29T13:13:32;0.68;;;0.40;;
64061;SDS011;50308;47.438;-1.528;2023-07-29T13:15:58;1.42;;;0.50;;
64061;SDS011;50308;47.438;-1.528;2023-07-29T13:18:24;1.23;;;0.60;;
64061;SDS011;50308;47.438;-1.528;2023-07-29T13:20:49;1.25;;;0.50;;
64061;SDS011;50308;47.438;-1.528;2023-07-29T13:23:15;1.05;;;0.52;;
64061;SDS011;50308;47.438;-1.528;2023-07-29T13:25:41;0.95;;;0.50;;
64061;SDS011;50308;47.438;-1.528;2023-07-29T13:28:08;3.22;;;0.70;;
64061;SDS011;50308;47.438;-1.528;2023-07-29T13:30:35;1.20;;;0.40;;
64061;SDS011;50308;47.438;-1.528;2023-07-29T13:33:00;1.25;;;0.50;;
64061;SDS011;50308;47.438;-1.528;2023-07-29T13:35:26;1.00;;;0.50;;
64061;SDS011;50308;47.438;-1.528;2023-07-29T13:37:52;0.80;;;0.40;;
64061;SDS011;50308;47.438;-1.528;2023-07-29T13:40:18;0.80;;;0.32;;
64061;SDS011;50308;47.438;-1.528;2023-07-29T13:42:44;1.55;;;0.40;;
64061;SDS011;50308;47.438;-1.528;2023-07-29T13:45:09;1.23;;;0.40;;
64061;SDS011;50308;47.438;-1.528;2023-07-29T13:47:35;2.22;;;0.50;;
64061;SDS011;50308;47.438;-1.528;2023-07-29T13:50:01;2.78;;;0.50;;
64061;SDS011;50308;47.438;-1.528;2023-07-29T13:52:27;3.83;;;0.60;;
64061;SDS011;50308;47.438;-1.528;2023-07-29T13:54:52;2.92;;;0.63;;
64061;SDS011;50308;47.438;-1.528;2023-07-29T13:57:18;1.42;;;0.50;;
64061;SDS011;50308;47.438;-1.528;2023-07-29T13:59:43;13.05;;;1.33;;
64061;SDS011;50308;47.438;-1.528;2023-07-29T14:02:09;1.58;;;0.60;;
64061;SDS011;50308;47.438;-1.528;2023-07-29T14:04:35;6.35;;;0.93;;
64061;SDS011;50308;47.438;-1.528;2023-07-29T14:07:00;5.22;;;0.80;;
64061;SDS011;50308;47.438;-1.528;2023-07-29T14:09:26;1.38;;;0.60;;
64061;SDS011;50308;47.438;-1.528;2023-07-29T14:11:53;3.83;;;0.70;;
64061;SDS011;50308;47.438;-1.528;2023-07-29T14:14:19;2.28;;;0.65;;
64061;SDS011;50308;47.438;-1.528;2023-07-29T14:16:45;2.58;;;0.52;;
64061;SDS011;50308;47.438;-1.528;2023-07-29T14:19:11;1.13;;;0.50;;
64061;SDS011;50308;47.438;-1.528;2023-07-29T14:21:37;2.05;;;0.60;;
64061;SDS011;50308;47.438;-1.528;2023-07-29T14:24:03;2.22;;;0.57;;
64061;SDS011;50308;47.438;-1.528;2023-07-29T14:26:29;1.95;;;0.70;;
64061;SDS011;50308;47.438;-1.528;2023-07-29T14:28:55;1.23;;;0.50;;
64061;SDS011;50308;47.438;-1.528;2023-07-29T14:31:20;1.90;;;0.47;;
64061;SDS011;50308;47.438;-1.528;2023-07-29T14:33:47;0.77;;;0.45;;
64061;SDS011;50308;47.438;-1.528;2023-07-29T14:36:14;1.08;;;0.55;;
64061;SDS011;50308;47.438;-1.528;2023-07-29T14:38:40;0.88;;;0.68;;
64061;SDS011;50308;47.438;-1.528;2023-07-29T14:41:05;1.23;;;0.40;;
64061;SDS011;50308;47.438;-1.528;2023-07-29T14:43:31;1.10;;;0.50;;
64061;SDS011;50308;47.438;-1.528;2023-07-29T14:45:57;1.38;;;0.50;;
64061;SDS011;50308;47.438;-1.528;2023-07-29T14:48:23;1.63;;;0.60;;
64061;SDS011;50308;47.438;-1.528;2023-07-29T14:50:48;2.08;;;0.50;;
64061;SDS011;50308;47.438;-1.528;2023-07-29T14:53:14;0.95;;;0.60;;